createdAt,value
2019-04-25T00:00:13.753Z,94.10
2019-04-25T00:02:42.731Z,94.10
2019-04-25T00:05:11.419Z,94.40
2019-04-25T00:07:38.711Z,94.20
2019-04-25T00:10:06.114Z,93.80
2019-04-25T00:12:32.845Z,93.80
2019-04-25T00:15:01.262Z,94.00
2019-04-25T00:17:31.523Z,93.90
2019-04-25T00:19:58.268Z,93.40
2019-04-25T00:22:26.937Z,93.70
2019-04-25T00:24:55.491Z,93.50
2019-04-25T00:27:23.773Z,94.40
2019-04-25T00:29:51.652Z,95.00
2019-04-25T00:32:18.772Z,94.70
2019-04-25T00:34:45.947Z,95.60
2019-04-25T00:37:14.029Z,95.90
2019-04-25T00:39:43.469Z,96.00
2019-04-25T00:42:09.536Z,95.50
2019-04-25T00:44:36.178Z,95.20
2019-04-25T00:47:02.872Z,95.60
2019-04-25T00:49:29.490Z,95.60
2019-04-25T00:51:56.243Z,95.40
2019-04-25T00:54:22.917Z,95.40
2019-04-25T00:56:50.498Z,95.40
2019-04-25T00:59:29.113Z,95.20
2019-04-25T01:01:57.764Z,95.60
2019-04-25T01:04:25.629Z,95.10
2019-04-25T01:06:53.022Z,94.60
2019-04-25T01:09:22.240Z,94.50
2019-04-25T01:11:49.979Z,94.90
2019-04-25T01:14:16.813Z,94.80
2019-04-25T01:19:18.933Z,96.00
2019-04-25T01:21:45.621Z,96.20
2019-04-25T01:24:12.258Z,96.10
2019-04-25T01:26:38.860Z,95.70
2019-04-25T01:29:06.056Z,96.10
2019-04-25T01:31:33.657Z,95.90
2019-04-25T01:34:00.532Z,95.20
2019-04-25T01:36:47.261Z,95.30
2019-04-25T01:39:24.443Z,95.50
2019-04-25T01:42:05.303Z,95.10
2019-04-25T01:44:34.138Z,95.70
2019-04-25T01:47:01.224Z,95.60
2019-04-25T01:49:27.984Z,95.40
2019-04-25T01:51:57.189Z,94.80
2019-04-25T01:54:23.820Z,95.60
2019-04-25T01:56:50.877Z,95.70
2019-04-25T01:59:17.600Z,95.10
2019-04-25T02:01:44.333Z,95.60
2019-04-25T02:04:11.184Z,96.10
2019-04-25T02:06:38.217Z,95.40
2019-04-25T02:09:08.280Z,94.70
2019-04-25T02:11:36.820Z,94.70
2019-04-25T02:14:05.094Z,94.60
2019-04-25T02:16:33.591Z,94.80
2019-04-25T02:19:00.628Z,93.90
2019-04-25T02:21:27.305Z,94.50
2019-04-25T02:23:55.443Z,94.70
2019-04-25T02:26:24.026Z,94.60
2019-04-25T02:28:50.760Z,95.60
2019-04-25T02:31:18.367Z,94.90
2019-04-25T02:33:45.160Z,94.90
2019-04-25T02:36:11.826Z,94.70
2019-04-25T02:38:38.475Z,94.70
2019-04-25T02:41:08.417Z,94.60
2019-04-25T02:43:35.069Z,94.60
2019-04-25T02:46:08.244Z,95.30
2019-04-25T02:48:36.844Z,95.30
2019-04-25T02:51:08.415Z,95.50
2019-04-25T02:53:39.728Z,95.60
2019-04-25T02:56:26.046Z,95.30
2019-04-25T02:58:34.909Z,95.70
2019-04-25T03:01:12.501Z,95.40
2019-04-25T03:03:30.705Z,95.40
2019-04-25T03:05:58.011Z,95.20
2019-04-25T03:08:25.893Z,95.50
2019-04-25T03:10:54.320Z,95.40
2019-04-25T03:13:21.137Z,95.40
2019-04-25T03:15:47.764Z,96.00
2019-04-25T03:18:16.440Z,95.60
2019-04-25T03:20:45.278Z,95.70
2019-04-25T03:23:14.601Z,96.00
2019-04-25T03:25:41.331Z,96.20
2019-04-25T03:28:08.192Z,96.20
2019-04-25T03:30:35.529Z,96.40
2019-04-25T03:33:07.651Z,96.70
2019-04-25T03:35:30.916Z,96.30
2019-04-25T03:37:57.573Z,96.20
2019-04-25T03:40:24.241Z,96.20
2019-04-25T03:42:50.926Z,95.80
2019-04-25T03:45:17.588Z,96.50
2019-04-25T03:47:44.275Z,96.30
2019-04-25T03:50:10.897Z,96.20
2019-04-25T03:52:37.555Z,95.90
2019-04-25T03:55:07.398Z,96.30
2019-04-25T03:57:33.975Z,96.60
2019-04-25T04:00:01.119Z,96.60
2019-04-25T04:02:27.869Z,96.60
2019-04-25T04:04:54.492Z,96.70
2019-04-25T04:07:23.811Z,96.40
2019-04-25T04:09:49.691Z,95.90
2019-04-25T04:12:16.420Z,96.20
2019-04-25T04:14:43.738Z,96.10
2019-04-25T04:17:29.179Z,96.80
2019-04-25T04:20:00.536Z,96.80
2019-04-25T04:22:29.210Z,97.10
2019-04-25T04:24:57.771Z,97.20
2019-04-25T04:27:24.706Z,96.80
2019-04-25T04:29:51.272Z,97.20
2019-04-25T04:32:17.934Z,96.90
2019-04-25T04:34:45.484Z,97.00
2019-04-25T04:37:14.770Z,96.10
2019-04-25T04:39:41.171Z,96.70
2019-04-25T04:42:08.377Z,97.20
2019-04-25T04:44:35.198Z,96.60
2019-04-25T04:47:01.841Z,96.20
2019-04-25T04:49:28.460Z,96.20
2019-04-25T04:51:55.148Z,95.80
2019-04-25T04:54:23.128Z,95.50
2019-04-25T04:56:50.043Z,95.60
2019-04-25T04:59:16.668Z,95.50
2019-04-25T05:02:03.359Z,95.60
2019-04-25T05:04:33.432Z,95.80
2019-04-25T05:07:03.641Z,95.30
2019-04-25T05:09:30.360Z,95.20
2019-04-25T05:11:57.141Z,95.10
2019-04-25T05:14:26.544Z,95.10
2019-04-25T05:16:53.272Z,95.30
2019-04-25T05:19:20.117Z,95.60
2019-04-25T05:21:48.720Z,95.20
2019-04-25T05:24:16.061Z,95.00
2019-04-25T05:26:44.056Z,95.00
2019-04-25T05:29:10.744Z,94.90
2019-04-25T05:31:39.379Z,94.90
2019-04-25T05:34:06.043Z,94.60
2019-04-25T05:36:38.258Z,94.40
2019-04-25T05:39:07.228Z,94.50
2019-04-25T05:41:35.970Z,94.60
2019-04-25T05:44:04.474Z,94.20
2019-04-25T05:46:31.218Z,94.60
2019-04-25T05:48:57.833Z,94.50
2019-04-25T05:51:25.092Z,94.00
2019-04-25T05:53:52.625Z,93.60
2019-04-25T05:56:20.139Z,93.60
2019-04-25T05:58:46.862Z,93.60
2019-04-25T06:01:13.596Z,93.20
2019-04-25T06:03:40.296Z,93.30
2019-04-25T06:06:08.280Z,93.20
2019-04-25T06:08:36.936Z,93.20
2019-04-25T06:11:08.369Z,93.00
2019-04-25T06:13:36.943Z,93.30
2019-04-25T06:16:05.688Z,92.90
2019-04-25T06:18:40.009Z,92.50
2019-04-25T06:21:08.572Z,92.10
2019-04-25T06:23:46.192Z,92.50
2019-04-25T06:26:23.094Z,92.40
2019-04-25T06:28:53.661Z,92.40
2019-04-25T06:31:13.758Z,92.80
2019-04-25T06:33:41.422Z,92.10
2019-04-25T06:36:08.100Z,91.90
2019-04-25T06:38:34.764Z,92.00
2019-04-25T06:41:01.404Z,92.00
2019-04-25T06:43:28.100Z,91.80
2019-04-25T06:46:14.038Z,91.50
2019-04-25T06:48:58.561Z,91.80
2019-04-25T06:51:46.043Z,91.90
2019-04-25T06:54:13.759Z,91.90
2019-04-25T06:56:40.530Z,91.60
2019-04-25T06:59:10.061Z,91.50
2019-04-25T07:01:36.721Z,92.20
2019-04-25T07:04:04.069Z,91.70
2019-04-25T07:06:31.352Z,91.60
2019-04-25T07:08:58.252Z,91.60
2019-04-25T07:11:25.700Z,91.30
2019-04-25T07:13:53.675Z,90.90
2019-04-25T07:16:20.511Z,90.10
2019-04-25T07:18:47.291Z,90.10
2019-04-25T07:21:14.285Z,90.30
2019-04-25T07:23:41.248Z,89.60
2019-04-25T07:26:10.643Z,88.90
2019-04-25T07:28:55.905Z,89.80
2019-04-25T07:31:41.112Z,88.10
2019-04-25T07:34:09.715Z,87.10
2019-04-25T07:36:37.746Z,88.20
2019-04-25T07:39:10.383Z,88.40
2019-04-25T07:41:37.157Z,87.90
2019-04-25T07:44:05.515Z,86.00
2019-04-25T07:46:36.929Z,85.00
2019-04-25T07:49:00.890Z,84.80
2019-04-25T07:51:28.240Z,84.80
2019-04-25T07:53:55.124Z,85.50
2019-04-25T07:56:21.868Z,84.50
2019-04-25T07:58:52.466Z,84.60
2019-04-25T08:01:17.233Z,84.70
2019-04-25T08:03:44.034Z,82.40
2019-04-25T08:06:10.852Z,82.30
2019-04-25T08:08:38.983Z,83.40
2019-04-25T08:11:07.304Z,82.20
2019-04-25T08:13:45.118Z,80.20
2019-04-25T08:16:25.403Z,79.60
2019-04-25T08:18:53.857Z,79.10
2019-04-25T08:21:21.596Z,78.60
2019-04-25T08:23:48.632Z,76.70
2019-04-25T08:26:16.891Z,78.10
2019-04-25T08:28:54.600Z,78.40
2019-04-25T08:31:13.552Z,77.10
2019-04-25T08:33:40.329Z,76.70
2019-04-25T08:36:09.275Z,77.10
2019-04-25T08:38:36.093Z,76.40
2019-04-25T08:41:04.117Z,75.10
2019-04-25T08:43:30.983Z,74.20
2019-04-25T08:45:57.637Z,74.70
2019-04-25T08:48:26.217Z,74.10
2019-04-25T08:50:54.980Z,74.40
2019-04-25T08:53:23.826Z,74.30
2019-04-25T08:55:55.905Z,73.80
2019-04-25T08:58:41.390Z,73.30
2019-04-25T09:01:16.879Z,74.00
2019-04-25T09:03:48.350Z,74.50
2019-04-25T09:06:15.380Z,73.80
2019-04-25T09:08:45.336Z,74.60
2019-04-25T09:11:10.973Z,73.50
2019-04-25T09:13:38.626Z,71.90
2019-04-25T09:16:06.270Z,72.70
2019-04-25T09:18:35.734Z,72.70
2019-04-25T09:21:01.558Z,71.20
2019-04-25T09:23:28.225Z,71.70
2019-04-25T09:25:56.792Z,70.50
2019-04-25T09:28:23.910Z,70.80
2019-04-25T09:30:50.618Z,70.10
2019-04-25T09:33:19.236Z,70.60
2019-04-25T09:35:46.078Z,69.60
2019-04-25T09:38:13.269Z,67.90
2019-04-25T09:40:40.190Z,68.70
2019-04-25T09:43:06.988Z,69.30
2019-04-25T09:45:53.435Z,67.80
2019-04-25T09:48:23.173Z,67.90
2019-04-25T09:51:05.746Z,66.30
2019-04-25T09:53:34.270Z,67.40
2019-04-25T09:56:04.167Z,68.20
2019-04-25T09:58:36.427Z,67.30
2019-04-25T10:01:14.484Z,66.30
2019-04-25T10:03:43.547Z,65.50
2019-04-25T10:06:13.372Z,65.90
2019-04-25T10:08:41.064Z,65.20
2019-04-25T10:11:07.967Z,65.10
2019-04-25T10:13:35.152Z,63.30
2019-04-25T10:16:07.529Z,61.70
2019-04-25T10:18:34.804Z,60.40
2019-04-25T10:21:04.258Z,59.80
2019-04-25T10:23:31.397Z,61.30
2019-04-25T10:25:58.067Z,61.50
2019-04-25T10:28:27.001Z,62.20
2019-04-25T10:30:55.547Z,60.60
2019-04-25T10:33:24.289Z,60.30
2019-04-25T10:35:55.902Z,60.60
2019-04-25T10:38:20.892Z,60.50
2019-04-25T10:40:48.519Z,61.20
2019-04-25T10:43:15.141Z,60.10
2019-04-25T10:45:44.752Z,59.80
2019-04-25T10:48:11.548Z,60.60
2019-04-25T10:50:39.994Z,60.30
2019-04-25T10:53:07.650Z,61.00
2019-04-25T10:55:37.235Z,60.60
2019-04-25T10:58:04.284Z,60.90
2019-04-25T11:00:33.932Z,61.30
2019-04-25T11:03:05.445Z,61.80
2019-04-25T11:05:34.296Z,61.20
2019-04-25T11:08:04.260Z,63.90
2019-04-25T11:10:31.024Z,63.30
2019-04-25T11:12:57.965Z,63.70
2019-04-25T11:15:25.169Z,63.10
2019-04-25T11:17:54.118Z,64.00
2019-04-25T11:20:29.205Z,64.30
2019-04-25T11:22:55.885Z,64.50
2019-04-25T11:25:24.021Z,63.50
2019-04-25T11:27:52.022Z,62.20
2019-04-25T11:30:20.268Z,61.60
2019-04-25T11:32:47.942Z,61.60
2019-04-25T11:35:15.449Z,61.60
2019-04-25T11:37:43.163Z,61.60
2019-04-25T11:40:27.882Z,62.20
2019-04-25T11:42:54.693Z,61.60
2019-04-25T11:45:21.653Z,63.60
2019-04-25T11:47:48.441Z,64.20
2019-04-25T11:50:15.195Z,64.30
2019-04-25T11:52:43.643Z,63.10
2019-04-25T11:55:10.968Z,62.90
2019-04-25T11:57:39.746Z,61.20
2019-04-25T12:00:06.976Z,61.30
2019-04-25T12:02:34.402Z,60.60
2019-04-25T12:05:01.325Z,61.10
2019-04-25T12:07:28.513Z,60.30
2019-04-25T12:09:55.654Z,60.00
2019-04-25T12:12:44.246Z,59.80
2019-04-25T12:15:11.197Z,60.20
2019-04-25T12:17:38.076Z,59.80
2019-04-25T12:20:07.271Z,59.90
2019-04-25T12:22:34.425Z,59.40
2019-04-25T12:25:01.729Z,59.90
2019-04-25T12:27:28.369Z,58.20
2019-04-25T12:29:55.406Z,57.70
2019-04-25T12:32:22.325Z,58.00
2019-04-25T12:34:49.512Z,57.60
2019-04-25T12:37:17.445Z,58.10
2019-04-25T12:39:44.171Z,58.50
2019-04-25T12:42:14.334Z,58.10
2019-04-25T12:44:58.163Z,58.30
2019-04-25T12:47:34.311Z,58.30
2019-04-25T12:50:01.145Z,58.20
2019-04-25T12:52:27.981Z,58.80
2019-04-25T12:54:59.503Z,58.60
2019-04-25T12:57:27.382Z,58.70
2019-04-25T12:59:55.346Z,58.60
2019-04-25T13:02:23.560Z,58.80
2019-04-25T13:04:50.512Z,58.90
2019-04-25T13:07:17.253Z,59.00
2019-04-25T13:09:44.399Z,59.50
2019-04-25T13:12:13.440Z,59.40
2019-04-25T13:14:40.175Z,59.80
2019-04-25T13:17:08.452Z,60.30
2019-04-25T13:19:35.682Z,61.20
2019-04-25T13:22:02.869Z,61.40
2019-04-25T13:24:29.514Z,60.90
2019-04-25T13:27:03.864Z,61.00
2019-04-25T13:29:47.833Z,61.40
2019-04-25T13:32:22.320Z,61.30
2019-04-25T13:34:50.876Z,61.20
2019-04-25T13:37:19.873Z,59.70
2019-04-25T13:39:48.566Z,59.20
2019-04-25T13:42:15.611Z,58.80
2019-04-25T13:44:44.164Z,57.90
2019-04-25T13:47:10.942Z,58.70
2019-04-25T13:49:38.188Z,57.90
2019-04-25T13:52:05.203Z,58.40
2019-04-25T13:54:33.821Z,59.40
2019-04-25T13:57:03.218Z,59.90
2019-04-25T13:59:29.233Z,60.60
2019-04-25T14:01:57.785Z,61.30
2019-04-25T14:04:26.656Z,59.30
2019-04-25T14:06:55.709Z,59.20
2019-04-25T14:09:24.875Z,60.10
2019-04-25T14:11:53.894Z,59.80
2019-04-25T14:14:21.464Z,59.20
2019-04-25T14:16:50.220Z,57.10
2019-04-25T14:19:36.127Z,58.00
2019-04-25T14:22:06.396Z,58.00
2019-04-25T14:24:35.678Z,58.20
2019-04-25T14:27:03.675Z,58.00
2019-04-25T14:29:31.026Z,59.00
2019-04-25T14:31:57.925Z,56.80
2019-04-25T14:34:26.590Z,56.90
2019-04-25T14:36:54.203Z,56.70
2019-04-25T14:39:21.164Z,56.60
2019-04-25T14:41:48.419Z,57.20
2019-04-25T14:44:15.224Z,56.40
2019-04-25T14:46:42.151Z,56.50
2019-04-25T14:49:08.771Z,56.50
2019-04-25T14:51:36.060Z,56.10
2019-04-25T14:54:04.786Z,56.80
2019-04-25T14:56:36.395Z,56.40
2019-04-25T14:59:06.777Z,58.30
2019-04-25T15:01:44.061Z,58.80
2019-04-25T15:04:01.981Z,58.00
2019-04-25T15:06:29.683Z,57.60
2019-04-25T15:08:58.422Z,57.40
2019-04-25T15:11:25.139Z,57.80
2019-04-25T15:13:51.932Z,57.10
2019-04-25T15:16:18.788Z,57.60
2019-04-25T15:18:46.783Z,56.80
2019-04-25T15:21:14.002Z,56.80
2019-04-25T15:23:40.891Z,56.60
2019-04-25T15:26:08.802Z,57.20
2019-04-25T15:28:36.346Z,57.70
2019-04-25T15:31:05.059Z,57.10
2019-04-25T15:33:31.884Z,57.20
2019-04-25T15:36:18.646Z,55.60
2019-04-25T15:38:48.850Z,55.90
2019-04-25T15:41:17.457Z,56.50
2019-04-25T15:43:54.860Z,55.30
2019-04-25T15:46:23.454Z,55.40
2019-04-25T15:48:50.129Z,56.00
2019-04-25T15:51:17.298Z,55.00
2019-04-25T15:53:44.027Z,55.20
2019-04-25T15:56:10.770Z,55.40
2019-04-25T15:58:37.592Z,55.90
2019-04-25T16:01:05.473Z,55.60
2019-04-25T16:03:33.185Z,55.20
2019-04-25T16:06:00.141Z,54.30
2019-04-25T16:08:27.630Z,55.10
2019-04-25T16:10:54.641Z,56.00
2019-04-25T16:13:21.294Z,57.20
2019-04-25T16:15:48.299Z,56.70
2019-04-25T16:18:15.208Z,56.00
2019-04-25T16:20:42.087Z,55.90
2019-04-25T16:23:08.844Z,56.00
2019-04-25T16:25:38.547Z,56.70
2019-04-25T16:28:05.345Z,57.40
2019-04-25T16:30:33.177Z,57.30
2019-04-25T16:32:59.940Z,56.60
2019-04-25T16:35:26.681Z,57.50
2019-04-25T16:37:53.528Z,56.60
2019-04-25T16:40:20.969Z,56.80
2019-04-25T16:42:47.783Z,57.10
2019-04-25T16:45:16.251Z,57.00
2019-04-25T16:47:43.067Z,58.30
2019-04-25T16:50:10.424Z,57.40
2019-04-25T16:52:38.384Z,57.30
2019-04-25T16:55:06.312Z,57.90
2019-04-25T16:57:32.976Z,57.30
2019-04-25T16:59:59.738Z,57.00
2019-04-25T17:02:35.563Z,55.90
2019-04-25T17:04:56.909Z,56.00
2019-04-25T17:07:23.900Z,56.30
2019-04-25T17:09:50.579Z,56.30
2019-04-25T17:12:19.052Z,55.70
2019-04-25T17:14:53.639Z,56.50
2019-04-25T17:17:39.190Z,55.90
2019-04-25T17:20:14.263Z,55.60
2019-04-25T17:22:41.549Z,56.30
2019-04-25T17:25:08.714Z,56.60
2019-04-25T17:27:37.050Z,56.60
2019-04-25T17:30:05.898Z,56.90
2019-04-25T17:32:53.911Z,57.40
2019-04-25T17:35:40.852Z,57.90
2019-04-25T17:38:21.928Z,57.80
2019-04-25T17:40:48.752Z,57.60
2019-04-25T17:43:15.448Z,57.80
2019-04-25T17:45:43.836Z,58.20
2019-04-25T17:48:10.845Z,58.00
2019-04-25T17:50:37.854Z,59.00
2019-04-25T17:53:06.691Z,59.30
2019-04-25T17:55:33.388Z,58.70
2019-04-25T17:58:00.718Z,58.90
2019-04-25T18:00:29.385Z,59.00
2019-04-25T18:02:58.967Z,59.80
2019-04-25T18:05:25.359Z,59.90
2019-04-25T18:07:52.431Z,59.00
2019-04-25T18:10:19.982Z,59.80
2019-04-25T18:12:46.626Z,59.80
2019-04-25T18:15:15.255Z,60.90
2019-04-25T18:17:42.379Z,60.50
2019-04-25T18:20:19.924Z,60.80
2019-04-25T18:22:48.483Z,61.10
2019-04-25T18:25:22.896Z,61.50
2019-04-25T18:28:00.410Z,61.70
2019-04-25T18:30:27.272Z,68.00
2019-04-25T18:32:55.856Z,62.80
2019-04-25T18:35:26.175Z,62.50
2019-04-25T18:37:54.721Z,62.50
2019-04-25T18:40:29.097Z,63.10
2019-04-25T18:42:57.719Z,63.70
2019-04-25T18:45:26.324Z,64.10
2019-04-25T18:47:53.022Z,63.40
2019-04-25T18:50:21.648Z,64.30
2019-04-25T18:52:55.805Z,64.90
2019-04-25T18:55:27.444Z,64.70
2019-04-25T18:58:05.112Z,64.70
2019-04-25T19:00:33.717Z,64.90
2019-04-25T19:03:22.893Z,65.20
2019-04-25T19:05:49.949Z,65.20
2019-04-25T19:08:16.669Z,65.20
2019-04-25T19:10:43.505Z,65.40
2019-04-25T19:13:12.987Z,65.40
2019-04-25T19:15:40.319Z,65.40
2019-04-25T19:18:07.999Z,66.60
2019-04-25T19:20:34.971Z,69.80
2019-04-25T19:23:02.017Z,72.10
2019-04-25T19:25:28.744Z,73.70
2019-04-25T19:27:56.949Z,76.50
2019-04-25T19:30:23.729Z,76.70
2019-04-25T19:32:53.894Z,75.90
2019-04-25T19:35:20.720Z,75.00
2019-04-25T19:37:48.561Z,74.90
2019-04-25T19:40:18.192Z,76.40
2019-04-25T19:42:53.457Z,76.30
2019-04-25T19:45:20.514Z,76.50
2019-04-25T19:47:47.267Z,76.90
2019-04-25T19:50:14.490Z,75.40
2019-04-25T19:52:41.325Z,76.80
2019-04-25T19:55:09.112Z,76.70
2019-04-25T19:57:36.096Z,77.60
2019-04-25T20:00:05.433Z,78.50
2019-04-25T20:02:36.999Z,77.80
2019-04-25T20:05:07.412Z,78.70
2019-04-25T20:07:36.033Z,79.40
2019-04-25T20:10:22.431Z,79.70
2019-04-25T20:12:52.157Z,80.00
2019-04-25T20:15:19.591Z,79.50
2019-04-25T20:17:46.377Z,79.50
2019-04-25T20:20:14.156Z,81.40
2019-04-25T20:22:40.813Z,81.40
2019-04-25T20:25:09.453Z,80.90
2019-04-25T20:27:36.214Z,79.10
2019-04-25T20:30:05.608Z,78.90
2019-04-25T20:32:32.367Z,79.10
2019-04-25T20:34:59.117Z,79.50
2019-04-25T20:37:25.776Z,79.00
2019-04-25T20:39:52.426Z,80.20
2019-04-25T20:42:19.312Z,79.60
2019-04-25T20:44:46.757Z,81.20
2019-04-25T20:47:14.528Z,81.90
2019-04-25T20:49:42.620Z,82.00
2019-04-25T20:52:09.310Z,83.60
2019-04-25T20:54:36.182Z,82.20
2019-04-25T20:57:03.467Z,80.00
2019-04-25T20:59:30.372Z,80.90
2019-04-25T21:01:57.718Z,81.30
2019-04-25T21:04:41.276Z,80.40
2019-04-25T21:07:08.644Z,81.40
2019-04-25T21:09:35.428Z,78.20
2019-04-25T21:12:03.249Z,77.60
2019-04-25T21:14:37.718Z,79.10
2019-04-25T21:17:21.415Z,80.70
2019-04-25T21:19:50.469Z,81.80
2019-04-25T21:22:18.333Z,82.40
2019-04-25T21:24:45.072Z,81.70
2019-04-25T21:27:11.841Z,80.80
2019-04-25T21:29:38.516Z,81.10
2019-04-25T21:32:05.274Z,83.40
2019-04-25T21:34:32.051Z,82.70
2019-04-25T21:36:59.786Z,81.30
2019-04-25T21:39:32.588Z,80.80
2019-04-25T21:42:04.128Z,82.00
2019-04-25T21:44:31.090Z,82.60
2019-04-25T21:46:58.453Z,83.10
2019-04-25T21:49:25.406Z,83.70
2019-04-25T21:51:52.612Z,83.90
2019-04-25T21:54:20.504Z,83.90
2019-04-25T21:56:47.496Z,84.40
2019-04-25T21:59:14.494Z,84.60
2019-04-25T22:01:43.205Z,84.60
2019-04-25T22:04:09.967Z,84.60
2019-04-25T22:06:37.063Z,85.30
2019-04-25T22:09:10.661Z,85.60
2019-04-25T22:11:37.448Z,86.00
2019-04-25T22:14:05.417Z,86.30
2019-04-25T22:16:33.700Z,87.20
2019-04-25T22:19:00.726Z,87.00
2019-04-25T22:21:37.454Z,87.50
2019-04-25T22:24:06.145Z,87.20
2019-04-25T22:26:25.160Z,88.50
2019-04-25T22:28:52.121Z,88.20
2019-04-25T22:31:26.488Z,88.10
2019-04-25T22:33:55.623Z,88.20
2019-04-25T22:36:24.548Z,89.10
2019-04-25T22:39:09.968Z,89.20
2019-04-25T22:41:39.997Z,89.00
2019-04-25T22:44:09.095Z,88.90
2019-04-25T22:46:36.248Z,89.40
2019-04-25T22:49:03.700Z,90.00
2019-04-25T22:51:30.348Z,90.00
2019-04-25T22:53:57.451Z,90.40
2019-04-25T22:56:24.312Z,90.30
2019-04-25T22:58:51.148Z,90.90
2019-04-25T23:01:20.089Z,90.60
2019-04-25T23:03:51.844Z,90.30
2019-04-25T23:06:18.873Z,90.40
2019-04-25T23:08:45.652Z,90.50
2019-04-25T23:11:12.500Z,90.30
2019-04-25T23:13:39.588Z,90.40
2019-04-25T23:16:06.977Z,90.00
2019-04-25T23:18:33.924Z,90.50
2019-04-25T23:21:00.577Z,90.30
2019-04-25T23:23:27.693Z,90.10
2019-04-25T23:26:06.078Z,89.90
2019-04-25T23:28:37.568Z,90.20
2019-04-25T23:31:12.521Z,89.90
2019-04-25T23:33:39.535Z,90.70
2019-04-25T23:36:09.035Z,90.60
2019-04-25T23:38:35.855Z,90.20
2019-04-25T23:41:03.132Z,90.50
2019-04-25T23:43:30.093Z,90.20
2019-04-25T23:45:56.856Z,90.20
2019-04-25T23:48:23.985Z,89.80
2019-04-25T23:50:53.472Z,89.70
2019-04-25T23:53:19.347Z,89.30
2019-04-25T23:55:46.039Z,90.00
2019-04-25T23:58:13.466Z,90.20
